Language: 


Des rapports , des résumés tant et plus, au choix de chacun....


Données statistiques de la station
Quotidien Rapport Octobre 12, 2017 Unités:  Métrique    Anglais   les deux
« Précédent Jour
Suivant Jour »
Quotidien Hebdomadaire Mensuel Annuel Actuel
  Haut: Bas: Moyen:
Température: 19.5 °C 0.0 °C 14.2 °C
Pt de rosée: 15.0 °C 9.0 °C 11.5 °C
Humidité: 98 % 0 % 79 %
Vitesse du vent: 27.0 km/h 0.0 km/h 8.2 km/h
Rafales: 32.3 km/h - -
Vent:- - WSW
Pression: 1022.9 hPa 0.0 hPa -
Précipitation: 0.0 mm    
Historical Graphs
 
 
Données statistiques pour Octobre 12, 2017
Heure Température Point de rosée Pression Vent Vitesse du vent Refales Humidité Pluie (taux horaire)
00:00 16.1 °C 13.0 °C 1014.1 hPa West 14.0 km/h 19.5 km/h 82 % 0.0 mm
00:05 16.1 °C 13.0 °C 1014.1 hPa SSW 13.7 km/h 28.5 km/h 83 % 0.0 mm
00:10 16.2 °C 13.0 °C 1014.1 hPa WSW 13.7 km/h 28.5 km/h 83 % 0.0 mm
00:15 16.3 °C 13.0 °C 1013.1 hPa SW 21.9 km/h 27.7 km/h 83 % 0.0 mm
00:20 16.3 °C 13.0 °C 1013.1 hPa SSW 20.6 km/h 28.0 km/h 82 % 0.0 mm
00:25 16.4 °C 13.0 °C 1013.1 hPa SSW 16.3 km/h 31.7 km/h 82 % 0.0 mm
00:30 16.4 °C 13.0 °C 1013.1 hPa WSW 20.9 km/h 31.7 km/h 83 % 0.0 mm
00:35 16.4 °C 13.0 °C 1013.1 hPa WSW 16.6 km/h 29.1 km/h 83 % 0.0 mm
00:40 16.4 °C 13.0 °C 1013.1 hPa SW 16.9 km/h 29.1 km/h 83 % 0.0 mm
00:45 16.5 °C 14.0 °C 1014.1 hPa SSW 20.1 km/h 32.3 km/h 83 % 0.0 mm
00:50 16.5 °C 14.0 °C 1014.1 hPa SW 18.0 km/h 32.3 km/h 83 % 0.0 mm
00:55 16.4 °C 13.0 °C 1014.1 hPa SW 12.6 km/h 27.4 km/h 83 % 0.0 mm
01:00 16.4 °C 14.0 °C 1014.1 hPa SW 20.6 km/h 27.7 km/h 84 % 0.0 mm
01:05 16.3 °C 14.0 °C 1014.1 hPa WSW 17.7 km/h 27.7 km/h 86 % 0.0 mm
01:10 16.3 °C 14.0 °C 1014.1 hPa SSW 20.9 km/h 29.9 km/h 86 % 0.0 mm
01:15 16.2 °C 14.0 °C 1014.1 hPa West 13.7 km/h 29.9 km/h 88 % 0.0 mm
01:21 16.1 °C 14.0 °C 1014.1 hPa WSW 16.3 km/h 27.4 km/h 89 % 0.0 mm
01:26 16.0 °C 14.0 °C 1014.1 hPa WSW 27.0 km/h 32.0 km/h 90 % 0.0 mm
01:31 16.0 °C 15.0 °C 1014.1 hPa West 18.3 km/h 32.0 km/h 91 % 0.0 mm
01:36 16.0 °C 15.0 °C 1014.1 hPa WSW 11.9 km/h 27.0 km/h 91 % 0.0 mm
01:41 15.9 °C 15.0 °C 1014.1 hPa WSW 16.6 km/h 24.8 km/h 92 % 0.0 mm
01:46 15.9 °C 15.0 °C 1014.1 hPa SW 12.6 km/h 20.1 km/h 92 % 0.0 mm
01:51 15.9 °C 15.0 °C 1014.1 hPa SSW 17.2 km/h 23.8 km/h 92 % 0.0 mm
01:56 15.9 °C 15.0 °C 1014.1 hPa WSW 16.6 km/h 23.8 km/h 92 % 0.0 mm
02:01 15.9 °C 15.0 °C 1014.1 hPa West 15.8 km/h 26.7 km/h 92 % 0.0 mm
02:06 15.9 °C 15.0 °C 1014.1 hPa WSW 17.2 km/h 26.7 km/h 92 % 0.0 mm
02:11 15.9 °C 15.0 °C 1014.1 hPa WSW 20.9 km/h 20.9 km/h 92 % 0.0 mm
02:16 15.9 °C 15.0 °C 1014.1 hPa SW 10.5 km/h 20.9 km/h 92 % 0.0 mm
02:21 15.9 °C 15.0 °C 1014.1 hPa WSW 9.0 km/h 22.7 km/h 92 % 0.0 mm
02:26 15.9 °C 15.0 °C 1014.1 hPa WSW 7.9 km/h 22.7 km/h 92 % 0.0 mm
02:36 15.9 °C 15.0 °C 1014.1 hPa West 10.5 km/h 18.0 km/h 92 % 0.0 mm
02:41 15.9 °C 15.0 °C 1014.1 hPa WSW 17.2 km/h 17.2 km/h 92 % 0.0 mm
02:46 15.9 °C 15.0 °C 1015.1 hPa WSW 14.0 km/h 17.7 km/h 92 % 0.0 mm
02:51 15.9 °C 15.0 °C 1015.1 hPa WSW 14.0 km/h 17.7 km/h 92 % 0.0 mm
02:56 15.9 °C 15.0 °C 1015.1 hPa West 15.8 km/h 17.7 km/h 92 % 0.0 mm
03:02 0.0 °C 15.0 °C 0.0 hPa WSW 14.0 km/h 16.6 km/h 0 % 0.0 mm
03:07 0.0 °C 15.0 °C 1015.1 hPa WSW 12.6 km/h 23.3 km/h 0 % 0.0 mm
03:12 0.0 °C 15.0 °C 1015.1 hPa West 9.7 km/h 23.3 km/h 0 % 0.0 mm
03:17 0.0 °C 15.0 °C 1015.1 hPa West 16.3 km/h 20.1 km/h 0 % 0.0 mm
03:22 0.0 °C 15.0 °C 1015.1 hPa West 11.9 km/h 20.1 km/h 0 % 0.0 mm
03:27 0.0 °C 15.0 °C 1015.1 hPa WSW 12.2 km/h 19.5 km/h 0 % 0.0 mm
03:32 0.0 °C 15.0 °C 1015.1 hPa WSW 16.3 km/h 19.5 km/h 0 % 0.0 mm
03:37 0.0 °C 15.0 °C 1015.1 hPa WSW 12.2 km/h 21.2 km/h 0 % 0.0 mm
03:43 14.7 °C 14.0 °C 1015.1 hPa WSW 17.2 km/h 21.6 km/h 93 % 0.0 mm
03:48 14.7 °C 14.0 °C 1016.1 hPa West 16.3 km/h 23.0 km/h 93 % 0.0 mm
03:53 14.7 °C 14.0 °C 1016.1 hPa West 16.3 km/h 23.0 km/h 93 % 0.0 mm
03:58 14.7 °C 14.0 °C 1016.1 hPa West 13.0 km/h 24.8 km/h 93 % 0.0 mm
04:03 14.5 °C 13.0 °C 1015.1 hPa WSW 13.7 km/h 24.8 km/h 92 % 0.0 mm
04:08 14.4 °C 13.0 °C 1015.1 hPa WNW 10.5 km/h 21.9 km/h 92 % 0.0 mm
04:13 14.3 °C 13.0 °C 1015.1 hPa WSW 13.7 km/h 21.9 km/h 90 % 0.0 mm
04:23 14.0 °C 12.0 °C 1015.1 hPa West 9.3 km/h 24.8 km/h 85 % 0.0 mm
04:28 13.9 °C 12.0 °C 1015.1 hPa West 10.1 km/h 17.7 km/h 85 % 0.0 mm
04:33 13.9 °C 12.0 °C 1016.1 hPa West 12.6 km/h 17.7 km/h 85 % 0.0 mm
04:38 13.9 °C 12.0 °C 1016.1 hPa West 2.1 km/h 13.7 km/h 85 % 0.0 mm
04:43 13.2 °C 11.0 °C 1016.1 hPa Calm   13.7 km/h 85 % 0.0 mm
04:48 13.0 °C 11.0 °C 1016.1 hPa West 9.0 km/h 12.6 km/h 85 % 0.0 mm
04:53 13.0 °C 11.0 °C 1016.1 hPa West 9.3 km/h 12.6 km/h 85 % 0.0 mm
04:58 13.0 °C 11.0 °C 1016.1 hPa West 6.1 km/h 11.9 km/h 85 % 0.0 mm
05:03 12.5 °C 11.0 °C 1016.8 hPa West 5.5 km/h 10.5 km/h 86 % 0.0 mm
05:08 12.1 °C 10.0 °C 1016.8 hPa West 7.6 km/h 9.3 km/h 86 % 0.0 mm
05:14 11.9 °C 10.0 °C 1016.8 hPa Calm   9.3 km/h 87 % 0.0 mm
05:19 11.7 °C 10.0 °C 1016.8 hPa Calm   9.3 km/h 88 % 0.0 mm
05:22 11.6 °C 10.0 °C 1016.8 hPa Calm   6.4 km/h 89 % 0.0 mm
05:23 11.6 °C 10.0 °C 1016.8 hPa Calm   6.4 km/h 89 % 0.0 mm
05:28 11.4 °C 10.0 °C 1016.8 hPa Calm   5.8 km/h 89 % 0.0 mm
05:33 11.1 °C 9.0 °C 1018.2 hPa Calm   7.2 km/h 90 % 0.0 mm
05:38 11.1 °C 9.0 °C 1018.2 hPa Calm   7.2 km/h 90 % 0.0 mm
05:43 10.8 °C 9.0 °C 1018.2 hPa Calm   5.5 km/h 91 % 0.0 mm
05:48 10.7 °C 9.0 °C 1016.8 hPa Calm   5.5 km/h 92 % 0.0 mm
05:53 10.8 °C 10.0 °C 1016.8 hPa WSW 8.7 km/h 9.7 km/h 93 % 0.0 mm
05:58 10.9 °C 10.0 °C 1016.8 hPa West 9.7 km/h 10.5 km/h 94 % 0.0 mm
06:03 10.9 °C 10.0 °C 1016.1 hPa WSW 10.5 km/h 10.8 km/h 94 % 0.0 mm
06:08 11.0 °C 10.0 °C 1016.1 hPa West 10.1 km/h 10.8 km/h 94 % 0.0 mm
06:09 11.0 °C 10.0 °C 1016.1 hPa West 9.3 km/h 10.8 km/h 94 % 0.0 mm
06:14 11.1 °C 10.0 °C 1016.1 hPa West 9.3 km/h 11.9 km/h 94 % 0.0 mm
06:19 11.1 °C 10.0 °C 1016.8 hPa West 6.9 km/h 11.9 km/h 95 % 0.0 mm
06:24 11.0 °C 10.0 °C 1016.8 hPa WSW 1.8 km/h 9.7 km/h 94 % 0.0 mm
06:29 10.9 °C 10.0 °C 1016.8 hPa Calm   9.3 km/h 95 % 0.0 mm
06:35 10.9 °C 10.0 °C 1018.2 hPa Calm   9.3 km/h 95 % 0.0 mm
06:40 10.6 °C 10.0 °C 1018.2 hPa Calm   5.5 km/h 94 % 0.0 mm
06:45 10.4 °C 9.0 °C 1018.2 hPa Calm     94 % 0.0 mm
06:50 10.3 °C 9.0 °C 1018.2 hPa Calm     94 % 0.0 mm
06:55 10.3 °C 9.0 °C 1018.2 hPa Calm   5.5 km/h 94 % 0.0 mm
07:00 10.3 °C 9.0 °C 1018.2 hPa Calm   6.4 km/h 94 % 0.0 mm
07:05 10.3 °C 9.0 °C 1018.2 hPa Calm   6.4 km/h 94 % 0.0 mm
07:10 10.3 °C 9.0 °C 1018.2 hPa Calm     94 % 0.0 mm
07:15 10.3 °C 9.0 °C 1018.2 hPa West 4.0 km/h 4.0 km/h 94 % 0.0 mm
07:20 10.3 °C 9.0 °C 1018.2 hPa Calm   6.1 km/h 94 % 0.0 mm
07:25 10.3 °C 9.0 °C 1018.2 hPa Calm   6.1 km/h 94 % 0.0 mm
07:30 10.3 °C 9.0 °C 1018.2 hPa WSW 5.8 km/h 6.1 km/h 94 % 0.0 mm
07:35 10.3 °C 9.0 °C 1018.2 hPa West 2.6 km/h 7.6 km/h 94 % 0.0 mm
07:40 10.3 °C 9.0 °C 1018.2 hPa Calm   8.7 km/h 94 % 0.0 mm
07:45 10.3 °C 9.0 °C 1018.2 hPa Calm   8.7 km/h 94 % 0.0 mm
07:50 10.3 °C 9.0 °C 1018.2 hPa Calm   2.6 km/h 94 % 0.0 mm
07:56 9.9 °C 10.0 °C 1018.2 hPa Calm   2.1 km/h 96 % 0.0 mm
08:01 9.7 °C 9.0 °C 1018.8 hPa WSW 2.1 km/h 2.1 km/h 96 % 0.0 mm
08:06 9.7 °C 9.0 °C 1018.8 hPa West 4.7 km/h 4.7 km/h 96 % 0.0 mm
08:11 9.7 °C 9.0 °C 1018.8 hPa Calm   6.4 km/h 96 % 0.0 mm
08:16 9.7 °C 9.0 °C 1018.8 hPa Calm   6.4 km/h 96 % 0.0 mm
08:21 9.7 °C 9.0 °C 1018.8 hPa Calm   3.2 km/h 96 % 0.0 mm
08:26 9.7 °C 9.0 °C 1018.8 hPa Calm     96 % 0.0 mm
08:31 9.7 °C 9.0 °C 1018.2 hPa Calm     96 % 0.0 mm
08:36 9.7 °C 9.0 °C 1018.2 hPa Calm     96 % 0.0 mm
08:41 9.7 °C 9.0 °C 1018.2 hPa Calm     96 % 0.0 mm
08:46 9.7 °C 9.0 °C 1018.8 hPa Calm     96 % 0.0 mm
08:51 9.7 °C 9.0 °C 1018.8 hPa Calm     96 % 0.0 mm
08:56 9.7 °C 9.0 °C 1018.8 hPa Calm     96 % 0.0 mm
09:01 9.9 °C 10.0 °C 1019.9 hPa Calm     98 % 0.0 mm
09:06 9.9 °C 10.0 °C 1019.9 hPa Calm     98 % 0.0 mm
09:11 10.4 °C 10.0 °C 1019.9 hPa Calm     98 % 0.0 mm
09:16 10.8 °C 11.0 °C 1019.9 hPa Calm   4.7 km/h 98 % 0.0 mm
09:21 11.2 °C 11.0 °C 1019.9 hPa West 4.7 km/h 8.7 km/h 98 % 0.0 mm
09:26 11.6 °C 12.0 °C 1019.9 hPa Calm   8.7 km/h 98 % 0.0 mm
09:31 11.7 °C 12.0 °C 1020.9 hPa Calm   8.7 km/h 98 % 0.0 mm
09:37 12.1 °C 12.0 °C 1020.9 hPa Calm   8.7 km/h 98 % 0.0 mm
09:42 12.5 °C 13.0 °C 1020.9 hPa West 8.7 km/h 9.3 km/h 98 % 0.0 mm
09:47 12.7 °C 13.0 °C 1020.9 hPa West 6.4 km/h 13.0 km/h 98 % 0.0 mm
09:52 13.0 °C 13.0 °C 1020.9 hPa West 7.6 km/h 13.0 km/h 96 % 0.0 mm
09:57 13.2 °C 13.0 °C 1020.9 hPa West 6.4 km/h 10.5 km/h 96 % 0.0 mm
10:02 13.6 °C 13.0 °C 1020.9 hPa West 1.8 km/h 9.3 km/h 96 % 0.0 mm
10:07 13.8 °C 13.0 °C 1020.9 hPa Calm   9.7 km/h 95 % 0.0 mm
10:12 14.0 °C 13.0 °C 1020.9 hPa West 7.9 km/h 10.1 km/h 94 % 0.0 mm
10:16 14.1 °C 13.0 °C 1020.9 hPa West 7.9 km/h 12.6 km/h 93 % 0.0 mm
10:21 14.3 °C 13.0 °C 1020.9 hPa WSW 10.5 km/h 13.7 km/h 93 % 0.0 mm
10:26 14.4 °C 13.0 °C 1020.9 hPa West 9.7 km/h 13.7 km/h 92 % 0.0 mm
10:31 14.7 °C 13.0 °C 1019.9 hPa West 7.2 km/h 12.6 km/h 92 % 0.0 mm
10:36 14.9 °C 14.0 °C 1019.9 hPa WSW 6.1 km/h 12.6 km/h 91 % 0.0 mm
10:41 15.1 °C 13.0 °C 1019.9 hPa West 9.3 km/h 12.2 km/h 90 % 0.0 mm
10:46 15.3 °C 13.0 °C 1020.9 hPa West 10.1 km/h 13.7 km/h 88 % 0.0 mm
10:51 15.3 °C 13.0 °C 1020.9 hPa WSW 7.9 km/h 14.0 km/h 87 % 0.0 mm
10:56 15.5 °C 14.0 °C 1020.9 hPa WSW 9.3 km/h 14.0 km/h 87 % 0.0 mm
11:01 15.9 °C 14.0 °C 1020.9 hPa SW 9.3 km/h 11.9 km/h 87 % 0.0 mm
11:06 16.1 °C 13.0 °C 1020.9 hPa WSW 11.9 km/h 17.2 km/h 84 % 0.0 mm
11:11 16.2 °C 13.0 °C 1020.9 hPa WSW 9.0 km/h 17.2 km/h 83 % 0.0 mm
11:16 16.4 °C 13.0 °C 1020.9 hPa WSW 8.7 km/h 12.6 km/h 83 % 0.0 mm
11:21 16.5 °C 14.0 °C 1020.9 hPa WSW 10.1 km/h 13.0 km/h 82 % 0.0 mm
11:26 16.6 °C 14.0 °C 1020.9 hPa West 12.2 km/h 13.7 km/h 82 % 0.0 mm
11:31 16.8 °C 13.0 °C 1021.9 hPa West 10.5 km/h 13.7 km/h 81 % 0.0 mm
11:36 17.0 °C 13.0 °C 1021.9 hPa WSW 9.3 km/h 17.7 km/h 78 % 0.0 mm
11:41 16.9 °C 13.0 °C 1021.9 hPa West 12.6 km/h 17.7 km/h 76 % 0.0 mm
11:46 17.0 °C 13.0 °C 1021.9 hPa West 12.2 km/h 17.2 km/h 75 % 0.0 mm
11:51 17.0 °C 13.0 °C 1021.9 hPa WSW 14.0 km/h 16.9 km/h 74 % 0.0 mm
11:56 17.1 °C 12.0 °C 1021.9 hPa West 12.2 km/h 20.9 km/h 73 % 0.0 mm
12:02 17.4 °C 13.0 °C 1021.9 hPa West 11.9 km/h 20.9 km/h 74 % 0.0 mm
12:07 17.7 °C 13.0 °C 1021.9 hPa WSW 16.3 km/h 17.7 km/h 73 % 0.0 mm
12:12 18.0 °C 13.0 °C 1021.9 hPa WSW 12.6 km/h 17.7 km/h 72 % 0.0 mm
12:15 18.1 °C 13.0 °C 1021.9 hPa WSW 14.0 km/h 17.7 km/h 72 % 0.0 mm
12:20 18.2 °C 13.0 °C 1021.9 hPa West 20.6 km/h 20.6 km/h 71 % 0.0 mm
12:25 18.0 °C 12.0 °C 1021.9 hPa West 15.4 km/h 20.6 km/h 68 % 0.0 mm
12:30 18.2 °C 13.0 °C 1021.9 hPa West 12.2 km/h 19.1 km/h 68 % 0.0 mm
12:35 18.6 °C 13.0 °C 1021.9 hPa West 15.4 km/h 19.1 km/h 68 % 0.0 mm
12:40 18.7 °C 13.0 °C 1021.9 hPa West 9.0 km/h 16.9 km/h 68 % 0.0 mm
12:45 18.6 °C 13.0 °C 1022.9 hPa West 4.3 km/h 16.9 km/h 68 % 0.0 mm
12:50 19.0 °C 13.0 °C 1022.9 hPa SW 13.0 km/h 13.7 km/h 68 % 0.0 mm
12:55 18.9 °C 12.0 °C 1022.9 hPa SW 12.6 km/h 20.9 km/h 64 % 0.0 mm
13:00 18.3 °C 11.0 °C 1022.9 hPa WSW 13.7 km/h 20.9 km/h 63 % 0.0 mm
13:05 18.0 °C 12.0 °C 1022.9 hPa WSW 12.6 km/h 17.2 km/h 65 % 0.0 mm
13:10 17.9 °C 12.0 °C 1022.9 hPa WSW 5.0 km/h 14.0 km/h 67 % 0.0 mm
13:16 18.5 °C 12.0 °C 1022.9 hPa West 11.6 km/h 14.0 km/h 66 % 0.0 mm
13:21 18.9 °C 13.0 °C 1022.9 hPa West 1.4 km/h 14.0 km/h 65 % 0.0 mm
13:26 19.0 °C 12.0 °C 1022.9 hPa SW 15.4 km/h 19.8 km/h 62 % 0.0 mm
13:31 19.0 °C 11.0 °C 1021.9 hPa West 15.8 km/h 23.8 km/h 60 % 0.0 mm
13:36 19.5 °C 12.0 °C 1021.9 hPa WSW 16.9 km/h 23.8 km/h 60 % 0.0 mm
13:41 19.5 °C 11.0 °C 1021.9 hPa West 11.9 km/h 19.8 km/h 58 % 0.0 mm
13:46 19.5 °C 11.0 °C 1022.9 hPa West 14.0 km/h 19.8 km/h 57 % 0.0 mm
13:51 19.5 °C 11.0 °C 1022.9 hPa West 12.6 km/h 20.9 km/h 56 % 0.0 mm
13:56 19.5 °C 11.0 °C 1022.9 hPa WSW 16.6 km/h 23.8 km/h 57 % 0.0 mm
14:06 19.4 °C 11.0 °C 1021.9 hPa WSW 10.1 km/h 25.3 km/h 59 % 0.0 mm
14:11 19.4 °C 11.0 °C 1021.9 hPa WSW 17.2 km/h 20.1 km/h 57 % 0.0 mm
14:16 19.4 °C 11.0 °C 1021.9 hPa WSW 21.2 km/h 21.2 km/h 59 % 0.0 mm
14:22 18.9 °C 10.0 °C 1021.9 hPa West 11.9 km/h 21.2 km/h 57 % 0.0 mm
14:27 18.8 °C 11.0 °C 1021.9 hPa West 16.3 km/h 23.0 km/h 59 % 0.0 mm
14:32 19.1 °C 11.0 °C 1021.9 hPa WSW 18.3 km/h 23.0 km/h 60 % 0.0 mm
14:37 19.1 °C 11.0 °C 1021.9 hPa West 20.6 km/h 24.5 km/h 60 % 0.0 mm
14:42 18.8 °C 11.0 °C 1021.9 hPa West 15.1 km/h 24.5 km/h 61 % 0.0 mm
14:47 19.1 °C 12.0 °C 1021.9 hPa West 15.8 km/h 21.6 km/h 62 % 0.0 mm
14:52 19.0 °C 12.0 °C 1021.9 hPa WSW 16.6 km/h 20.9 km/h 62 % 0.0 mm
14:57 18.6 °C 11.0 °C 1021.9 hPa West 15.8 km/h 20.9 km/h 62 % 0.0 mm
15:02 18.2 °C 11.0 °C 1021.9 hPa West 14.0 km/h 23.0 km/h 62 % 0.0 mm
15:07 18.2 °C 11.0 °C 1021.9 hPa WSW 11.6 km/h 23.0 km/h 62 % 0.0 mm
15:12 18.8 °C 12.0 °C 1021.9 hPa WSW 13.7 km/h 21.2 km/h 65 % 0.0 mm
15:17 18.8 °C 12.0 °C 1021.9 hPa WSW 12.2 km/h 21.2 km/h 65 % 0.0 mm
15:22 19.2 °C 12.0 °C 1021.9 hPa WSW 14.8 km/h 21.2 km/h 63 % 0.0 mm
15:27 19.2 °C 12.0 °C 1021.9 hPa West 11.9 km/h 18.0 km/h 63 % 0.0 mm
15:32 18.3 °C 12.0 °C 1021.9 hPa WSW 10.5 km/h 17.2 km/h 64 % 0.0 mm
15:37 18.7 °C 12.0 °C 1021.9 hPa West 11.9 km/h 20.1 km/h 63 % 0.0 mm
15:42 19.1 °C 12.0 °C 1021.9 hPa SW 14.3 km/h 21.2 km/h 64 % 0.0 mm
15:47 19.4 °C 12.0 °C 1021.9 hPa WSW 12.6 km/h 21.2 km/h 63 % 0.0 mm
15:52 19.3 °C 11.0 °C 1021.9 hPa WSW 16.9 km/h 25.6 km/h 59 % 0.0 mm
15:55 19.2 °C 11.0 °C 1021.9 hPa WSW 15.8 km/h 28.0 km/h 59 % 0.0 mm
16:00 19.2 °C 12.0 °C 1021.9 hPa WSW 16.9 km/h 28.0 km/h 60 % 0.0 mm
16:10 19.3 °C 12.0 °C 1021.9 hPa SSW 20.6 km/h 24.8 km/h 62 % 0.0 mm
16:15 19.4 °C 12.0 °C 1021.9 hPa West 13.0 km/h 20.6 km/h 60 % 0.0 mm
16:20 19.2 °C 11.0 °C 1021.9 hPa West 12.6 km/h 23.8 km/h 58 % 0.0 mm
16:25 19.0 °C 11.0 °C 1021.9 hPa West 19.8 km/h 23.8 km/h 58 % 0.0 mm
16:30 19.0 °C 11.0 °C 1021.9 hPa WSW 24.5 km/h 24.5 km/h 59 % 0.0 mm
16:35 18.9 °C 11.0 °C 1021.9 hPa West 20.1 km/h 24.5 km/h 60 % 0.0 mm
16:38 18.9 °C 11.0 °C 1021.9 hPa WSW 16.3 km/h 24.5 km/h 60 % 0.0 mm
16:43 18.5 °C 11.0 °C 1021.9 hPa West 11.6 km/h 21.2 km/h 62 % 0.0 mm
16:48 18.6 °C 11.0 °C 1022.9 hPa WSW 19.5 km/h 19.5 km/h 62 % 0.0 mm
16:53 18.6 °C 11.0 °C 1022.9 hPa WSW 16.3 km/h 20.6 km/h 62 % 0.0 mm
16:58 18.3 °C 11.0 °C 1022.9 hPa West 17.2 km/h 20.6 km/h 61 % 0.0 mm
17:03 18.3 °C 11.0 °C 1021.9 hPa WSW 18.0 km/h 19.8 km/h 61 % 0.0 mm
17:08 18.2 °C 11.0 °C 1021.9 hPa West 16.3 km/h 24.8 km/h 63 % 0.0 mm
17:13 18.2 °C 11.0 °C 1021.9 hPa West 13.0 km/h 24.8 km/h 63 % 0.0 mm
17:18 18.2 °C 12.0 °C 1022.9 hPa WSW 9.3 km/h 20.9 km/h 64 % 0.0 mm
17:23 18.1 °C 11.0 °C 1022.9 hPa WSW 10.8 km/h 17.7 km/h 63 % 0.0 mm
17:28 18.1 °C 11.0 °C 1022.9 hPa WSW 13.7 km/h 20.9 km/h 63 % 0.0 mm
17:33 17.8 °C 11.0 °C 1022.9 hPa WSW 16.3 km/h 23.8 km/h 63 % 0.0 mm
17:38 17.7 °C 11.0 °C 1022.9 hPa WSW 13.7 km/h 23.8 km/h 64 % 0.0 mm
17:43 17.6 °C 11.0 °C 1022.9 hPa WSW 13.0 km/h 20.1 km/h 64 % 0.0 mm
17:48 17.5 °C 11.0 °C 1022.9 hPa WSW 20.1 km/h 20.1 km/h 65 % 0.0 mm
17:53 17.3 °C 11.0 °C 1022.9 hPa SW 19.1 km/h 21.6 km/h 64 % 0.0 mm
17:58 17.2 °C 11.0 °C 1022.9 hPa WSW 12.6 km/h 21.6 km/h 65 % 0.0 mm
18:04 17.0 °C 11.0 °C 1022.9 hPa West 20.1 km/h 26.2 km/h 66 % 0.0 mm
18:09 16.9 °C 11.0 °C 1022.9 hPa WSW 14.3 km/h 26.2 km/h 66 % 0.0 mm
18:14 16.6 °C 11.0 °C 1022.9 hPa West 15.8 km/h 20.1 km/h 67 % 0.0 mm
18:19 16.5 °C 11.0 °C 1022.9 hPa WSW 10.5 km/h 19.8 km/h 67 % 0.0 mm
18:24 16.3 °C 10.0 °C 1022.9 hPa West 13.0 km/h 19.8 km/h 67 % 0.0 mm
18:29 16.1 °C 10.0 °C 1022.9 hPa WSW 10.5 km/h 17.2 km/h 67 % 0.0 mm
18:34 15.9 °C 10.0 °C 1022.9 hPa West 8.7 km/h 15.4 km/h 69 % 0.0 mm
18:39 15.7 °C 10.0 °C 1022.9 hPa West 6.1 km/h 12.6 km/h 69 % 0.0 mm
18:41 15.6 °C 10.0 °C 1022.9 hPa West 10.1 km/h 11.9 km/h 70 % 0.0 mm
18:46 15.4 °C 10.0 °C 1022.9 hPa WSW 6.1 km/h 10.5 km/h 70 % 0.0 mm
18:51 15.1 °C 10.0 °C 1022.9 hPa WSW 6.4 km/h 10.5 km/h 71 % 0.0 mm
18:56 14.9 °C 10.0 °C 1022.9 hPa Calm   10.1 km/h 72 % 0.0 mm
19:01 14.6 °C 10.0 °C 1022.9 hPa WSW 6.9 km/h 10.1 km/h 73 % 0.0 mm
19:06 14.4 °C 10.0 °C 1022.9 hPa Calm   7.9 km/h 74 % 0.0 mm
19:11 14.3 °C 10.0 °C 1022.9 hPa Calm   7.6 km/h 74 % 0.0 mm
19:16 14.1 °C 10.0 °C 1022.9 hPa Calm   5.8 km/h 75 % 0.0 mm
19:21 14.0 °C 10.0 °C 1022.9 hPa Calm   6.1 km/h 76 % 0.0 mm
19:26 13.8 °C 10.0 °C 1022.9 hPa Calm   6.1 km/h 78 % 0.0 mm
19:31 13.8 °C 10.0 °C 1022.9 hPa Calm     78 % 0.0 mm
19:36 13.6 °C 10.0 °C 1022.9 hPa Calm     78 % 0.0 mm
19:41 13.4 °C 10.0 °C 1022.9 hPa Calm     79 % 0.0 mm
19:46 13.3 °C 10.0 °C 1022.9 hPa Calm     80 % 0.0 mm
19:51 13.1 °C 10.0 °C 1022.9 hPa Calm     80 % 0.0 mm
19:56 12.9 °C 10.0 °C 1022.9 hPa Calm     81 % 0.0 mm
20:01 12.7 °C 10.0 °C 1022.9 hPa Calm     81 % 0.0 mm
20:06 12.5 °C 10.0 °C 1022.9 hPa Calm     82 % 0.0 mm
20:11 12.4 °C 10.0 °C 1022.9 hPa Calm     82 % 0.0 mm
20:16 12.4 °C 10.0 °C 1022.9 hPa Calm   4.0 km/h 83 % 0.0 mm
20:21 12.2 °C 9.0 °C 1022.9 hPa Calm   4.0 km/h 83 % 0.0 mm
20:26 12.1 °C 10.0 °C 1022.9 hPa Calm   1.4 km/h 84 % 0.0 mm
20:30 12.0 °C 10.0 °C 1022.9 hPa Calm   1.4 km/h 84 % 0.0 mm
20:31 12.0 °C 10.0 °C 1022.9 hPa Calm   1.4 km/h 84 % 0.0 mm
20:37 12.0 °C 10.0 °C 1022.9 hPa Calm     85 % 0.0 mm
20:42 12.0 °C 10.0 °C 1022.9 hPa Calm     85 % 0.0 mm
20:47 11.8 °C 9.0 °C 1021.9 hPa Calm     85 % 0.0 mm
20:52 11.7 °C 9.0 °C 1021.9 hPa Calm     85 % 0.0 mm
20:57 11.6 °C 9.0 °C 1021.9 hPa Calm   4.3 km/h 86 % 0.0 mm
21:02 11.6 °C 10.0 °C 1022.9 hPa Calm   4.3 km/h 87 % 0.0 mm
21:07 11.6 °C 10.0 °C 1022.9 hPa SW 6.1 km/h 6.1 km/h 88 % 0.0 mm
21:12 11.7 °C 10.0 °C 1022.9 hPa Calm   6.1 km/h 89 % 0.0 mm
21:17 11.9 °C 10.0 °C 1022.9 hPa SSW 5.0 km/h 6.1 km/h 90 % 0.0 mm
21:22 12.1 °C 11.0 °C 1022.9 hPa Calm   5.5 km/h 90 % 0.0 mm
21:27 12.2 °C 11.0 °C 1022.9 hPa Calm   5.5 km/h 89 % 0.0 mm
21:32 12.2 °C 11.0 °C 1022.9 hPa Calm     90 % 0.0 mm
21:37 12.3 °C 11.0 °C 1022.9 hPa Calm     90 % 0.0 mm
21:38 12.3 °C 11.0 °C 1022.9 hPa Calm     90 % 0.0 mm
21:43 12.3 °C 11.0 °C 1022.9 hPa Calm   6.1 km/h 89 % 0.0 mm
21:48 12.2 °C 11.0 °C 1021.9 hPa Calm   7.9 km/h 89 % 0.0 mm
21:53 12.2 °C 11.0 °C 1021.9 hPa Calm   7.9 km/h 90 % 0.0 mm
21:58 12.2 °C 11.0 °C 1021.9 hPa Calm   6.9 km/h 89 % 0.0 mm
22:03 12.0 °C 11.0 °C 1022.9 hPa Calm   3.2 km/h 89 % 0.0 mm
22:08 11.8 °C 10.0 °C 1022.9 hPa Calm   5.0 km/h 89 % 0.0 mm
22:13 11.5 °C 10.0 °C 1022.9 hPa Calm   5.0 km/h 89 % 0.0 mm
22:18 11.4 °C 10.0 °C 1022.9 hPa Calm     89 % 0.0 mm
22:23 11.2 °C 10.0 °C 1022.9 hPa Calm     89 % 0.0 mm
22:28 11.1 °C 9.0 °C 1022.9 hPa Calm     89 % 0.0 mm
22:33 10.9 °C 9.0 °C 1022.9 hPa Calm     90 % 0.0 mm
22:38 10.8 °C 9.0 °C 1022.9 hPa Calm     90 % 0.0 mm
22:43 10.8 °C 9.0 °C 1022.9 hPa Calm     91 % 0.0 mm
22:48 10.7 °C 9.0 °C 1022.9 hPa Calm     91 % 0.0 mm
22:53 10.7 °C 9.0 °C 1022.9 hPa Calm     91 % 0.0 mm
22:58 10.9 °C 10.0 °C 1022.9 hPa Calm     92 % 0.0 mm
23:03 10.9 °C 10.0 °C 1021.9 hPa Calm     93 % 0.0 mm
23:08 11.2 °C 10.0 °C 1021.9 hPa Calm   1.8 km/h 93 % 0.0 mm
23:14 11.5 °C 11.0 °C 1021.9 hPa Calm   1.8 km/h 94 % 0.0 mm
23:19 11.9 °C 11.0 °C 1021.9 hPa Calm     94 % 0.0 mm
23:24 12.3 °C 12.0 °C 1021.9 hPa SSW 4.0 km/h 5.5 km/h 94 % 0.0 mm
23:29 12.5 °C 12.0 °C 1021.9 hPa Calm   5.5 km/h 94 % 0.0 mm
23:35 12.7 °C 12.0 °C 1022.9 hPa Calm   10.1 km/h 94 % 0.0 mm
23:40 12.9 °C 12.0 °C 1022.9 hPa Calm   10.1 km/h 94 % 0.0 mm
23:44 13.1 °C 12.0 °C 1022.9 hPa WSW 3.5 km/h 6.9 km/h 93 % 0.0 mm
23:49 13.1 °C 12.0 °C 1022.9 hPa Calm   9.0 km/h 93 % 0.0 mm
23:55 13.3 °C 13.0 °C 1022.9 hPa Calm   9.0 km/h 93 % 0.0 mm
Le Gheer Warneton
Courtoisie de Weather Underground - 2.25 mb

Mise a jour : 17/12/2017 22:38:11
Généré par Cumulus 1.9.4 (1099)